createdAt,value
2018-09-25T00:02:05.293Z,8.37
2018-09-25T00:04:39.741Z,8.38
2018-09-25T00:07:13.632Z,8.37
2018-09-25T00:09:48.180Z,8.37
2018-09-25T00:12:22.481Z,8.37
2018-09-25T00:14:56.897Z,8.35
2018-09-25T00:17:30.957Z,8.33
2018-09-25T00:20:05.225Z,8.29
2018-09-25T00:22:39.500Z,8.27
2018-09-25T00:25:14.221Z,8.24
2018-09-25T00:27:48.062Z,8.23
2018-09-25T00:30:21.901Z,8.23
2018-09-25T00:32:56.413Z,8.24
2018-09-25T00:35:33.310Z,8.25
2018-09-25T00:38:07.445Z,8.25
2018-09-25T00:40:41.706Z,8.25
2018-09-25T00:43:15.569Z,8.23
2018-09-25T00:45:49.822Z,8.23
2018-09-25T00:48:23.793Z,8.22
2018-09-25T00:50:58.271Z,8.23
2018-09-25T00:53:32.970Z,8.21
2018-09-25T00:56:07.208Z,8.18
2018-09-25T00:58:41.251Z,8.14
2018-09-25T01:01:15.102Z,8.14
2018-09-25T01:03:49.237Z,8.13
2018-09-25T01:06:23.214Z,8.10
2018-09-25T01:08:57.342Z,8.08
2018-09-25T01:11:31.655Z,8.07
2018-09-25T01:14:05.725Z,8.03
2018-09-25T01:16:39.871Z,7.99
2018-09-25T01:19:13.740Z,7.96
2018-09-25T01:21:48.086Z,7.94
2018-09-25T01:24:22.544Z,7.93
2018-09-25T01:26:57.029Z,7.91
2018-09-25T01:29:31.012Z,7.90
2018-09-25T01:32:05.190Z,7.87
2018-09-25T01:34:40.233Z,7.87
2018-09-25T01:37:15.031Z,7.88
2018-09-25T01:39:49.178Z,7.86
2018-09-25T01:42:23.191Z,7.87
2018-09-25T01:44:57.167Z,7.85
2018-09-25T01:47:31.070Z,7.83
2018-09-25T01:50:05.264Z,7.82
2018-09-25T01:52:39.858Z,7.82
2018-09-25T01:55:13.865Z,7.81
2018-09-25T01:57:48.300Z,7.79
2018-09-25T02:00:23.056Z,7.79
2018-09-25T02:02:57.492Z,7.78
2018-09-25T02:05:31.714Z,7.77
2018-09-25T02:08:06.178Z,7.76
2018-09-25T02:10:40.520Z,7.75
2018-09-25T02:13:14.465Z,7.73
2018-09-25T02:15:49.018Z,7.71
2018-09-25T02:18:23.266Z,7.70
2018-09-25T02:20:57.220Z,7.70
2018-09-25T02:23:31.433Z,7.71
2018-09-25T02:26:05.905Z,7.71
2018-09-25T02:28:39.708Z,7.71
2018-09-25T02:31:13.743Z,7.73
2018-09-25T02:33:47.581Z,7.74
2018-09-25T02:36:21.964Z,7.75
2018-09-25T02:38:56.157Z,7.74
2018-09-25T02:41:30.492Z,7.75
2018-09-25T02:44:04.778Z,7.74
2018-09-25T02:46:39.003Z,7.76
2018-09-25T02:49:12.976Z,7.74
2018-09-25T02:51:47.184Z,7.76
2018-09-25T02:54:21.332Z,7.75
2018-09-25T02:56:56.251Z,7.73
2018-09-25T02:59:31.297Z,7.71
2018-09-25T03:02:06.044Z,7.71
2018-09-25T03:04:41.006Z,7.70
2018-09-25T03:07:16.122Z,7.71
2018-09-25T03:09:50.160Z,7.72
2018-09-25T03:12:24.465Z,7.72
2018-09-25T03:14:58.630Z,7.73
2018-09-25T03:17:32.845Z,7.74
2018-09-25T03:20:07.101Z,7.74
2018-09-25T03:22:41.330Z,7.75
2018-09-25T03:25:15.246Z,7.75
2018-09-25T03:27:49.137Z,7.75
2018-09-25T03:30:22.985Z,7.75
2018-09-25T03:32:57.301Z,7.76
2018-09-25T03:35:31.446Z,7.77
2018-09-25T03:38:05.592Z,7.78
2018-09-25T03:40:39.654Z,7.79
2018-09-25T03:43:13.805Z,7.79
2018-09-25T03:45:47.791Z,7.80
2018-09-25T03:48:22.350Z,7.80
2018-09-25T03:50:56.282Z,7.81
2018-09-25T03:53:30.196Z,7.78
2018-09-25T03:56:04.468Z,7.78
2018-09-25T03:58:38.789Z,7.77
2018-09-25T04:01:13.249Z,7.76
2018-09-25T04:03:47.193Z,7.77
2018-09-25T04:06:21.156Z,7.77
2018-09-25T04:08:55.160Z,7.75
2018-09-25T04:11:29.069Z,7.76
2018-09-25T04:14:02.971Z,7.74
2018-09-25T04:16:37.257Z,7.71
2018-09-25T04:19:11.112Z,7.71
2018-09-25T04:21:45.149Z,7.70
2018-09-25T04:24:18.970Z,7.69
2018-09-25T04:26:53.412Z,7.70
2018-09-25T04:29:27.237Z,7.68
2018-09-25T04:32:01.207Z,7.67
2018-09-25T04:34:35.534Z,7.66
2018-09-25T04:37:09.834Z,7.64
2018-09-25T04:39:44.312Z,7.63
2018-09-25T04:42:18.407Z,7.60
2018-09-25T04:44:52.757Z,7.58
2018-09-25T04:47:26.611Z,7.57
2018-09-25T04:50:01.612Z,7.56
2018-09-25T04:52:36.631Z,7.51
2018-09-25T04:55:11.454Z,7.52
2018-09-25T04:57:45.755Z,7.47
2018-09-25T05:00:19.905Z,7.45
2018-09-25T05:02:54.426Z,7.40
2018-09-25T05:05:28.714Z,7.36
2018-09-25T05:08:02.930Z,7.31
2018-09-25T05:10:37.048Z,7.27
2018-09-25T05:13:11.195Z,7.22
2018-09-25T05:15:45.894Z,7.16
2018-09-25T05:18:19.881Z,7.14
2018-09-25T05:20:53.914Z,7.05
2018-09-25T05:23:28.281Z,7.05
2018-09-25T05:26:02.436Z,7.02
2018-09-25T05:28:36.910Z,6.99
2018-09-25T05:31:10.783Z,6.96
2018-09-25T05:33:44.781Z,6.91
2018-09-25T05:36:19.190Z,6.89
2018-09-25T05:38:54.167Z,6.86
2018-09-25T05:47:08.776Z,6.86
2018-09-25T05:49:43.155Z,6.87
2018-09-25T05:52:17.325Z,6.90
2018-09-25T05:54:51.235Z,6.91
2018-09-25T05:57:26.283Z,6.96
2018-09-25T06:00:00.218Z,6.99
2018-09-25T06:02:34.418Z,7.04
2018-09-25T06:05:08.276Z,7.09
2018-09-25T06:07:42.522Z,7.15
2018-09-25T06:10:16.287Z,7.19
2018-09-25T06:12:50.450Z,7.25
2018-09-25T06:15:24.378Z,7.29
2018-09-25T06:17:58.396Z,7.31
2018-09-25T06:20:32.589Z,7.36
2018-09-25T06:23:06.537Z,7.41
2018-09-25T06:25:40.769Z,7.45
2018-09-25T06:28:14.799Z,7.51
2018-09-25T06:30:48.807Z,7.56
2018-09-25T06:33:26.686Z,7.61
2018-09-25T06:36:00.458Z,7.67
2018-09-25T06:38:34.543Z,7.71
2018-09-25T06:41:08.755Z,7.75
2018-09-25T06:43:43.187Z,7.79
2018-09-25T06:46:17.557Z,7.84
2018-09-25T06:48:51.596Z,7.91
2018-09-25T06:51:25.470Z,7.98
2018-09-25T06:53:59.466Z,8.03
2018-09-25T06:56:33.245Z,8.10
2018-09-25T06:59:07.424Z,8.15
2018-09-25T07:01:46.413Z,8.22
2018-09-25T07:04:21.012Z,8.29
2018-09-25T07:06:55.400Z,8.36
2018-09-25T07:09:29.204Z,8.43
2018-09-25T07:12:03.141Z,8.49
2018-09-25T07:14:38.134Z,8.59
2018-09-25T07:17:13.181Z,8.69
2018-09-25T07:19:48.053Z,8.81
2018-09-25T07:22:23.289Z,8.95
2018-09-25T07:24:58.238Z,9.07
2018-09-25T07:27:32.794Z,9.21
2018-09-25T07:30:07.756Z,9.42
2018-09-25T07:32:42.156Z,9.61
2018-09-25T07:35:16.055Z,9.82
2018-09-25T07:37:50.476Z,9.97
2018-09-25T07:40:24.744Z,10.10
2018-09-25T07:42:58.818Z,10.20
2018-09-25T07:45:39.670Z,10.32
2018-09-25T07:48:13.897Z,10.43
2018-09-25T07:50:48.687Z,10.54
2018-09-25T07:53:23.017Z,10.69
2018-09-25T07:55:57.308Z,10.84
2018-09-25T07:58:31.852Z,10.98
2018-09-25T08:01:06.001Z,11.12
2018-09-25T08:03:40.089Z,11.26
2018-09-25T08:06:24.151Z,11.41
2018-09-25T08:08:58.146Z,11.48
2018-09-25T08:11:31.887Z,11.55
2018-09-25T08:14:06.090Z,11.65
2018-09-25T08:16:39.879Z,11.82
2018-09-25T08:19:14.080Z,11.99
2018-09-25T08:21:48.002Z,12.16
2018-09-25T08:24:28.279Z,12.34
2018-09-25T08:27:02.149Z,12.51
2018-09-25T08:29:36.358Z,12.65
2018-09-25T08:32:11.738Z,12.72
2018-09-25T08:34:45.963Z,12.82
2018-09-25T08:37:20.259Z,12.88
2018-09-25T08:39:54.135Z,12.96
2018-09-25T08:42:28.398Z,13.10
2018-09-25T08:45:02.317Z,13.26
2018-09-25T08:47:36.908Z,13.40
2018-09-25T08:50:10.812Z,13.55
2018-09-25T08:52:44.647Z,13.68
2018-09-25T08:55:18.534Z,13.75
2018-09-25T08:57:52.731Z,13.80
2018-09-25T09:00:27.074Z,13.93
2018-09-25T09:03:00.982Z,14.06
2018-09-25T09:05:34.986Z,14.19
2018-09-25T09:08:08.924Z,14.32
2018-09-25T09:10:43.342Z,14.45
2018-09-25T09:13:17.367Z,14.56
2018-09-25T09:15:51.765Z,14.70
2018-09-25T09:18:25.861Z,14.79
2018-09-25T09:20:59.691Z,14.89
2018-09-25T09:23:34.400Z,15.02
2018-09-25T09:26:08.556Z,15.18
2018-09-25T09:28:42.691Z,15.27
2018-09-25T09:31:16.589Z,15.34
2018-09-25T09:33:50.439Z,15.43
2018-09-25T09:36:24.313Z,15.56
2018-09-25T09:38:58.255Z,15.64
2018-09-25T09:41:32.259Z,15.71
2018-09-25T09:44:06.184Z,15.78
2018-09-25T09:46:39.991Z,15.86
2018-09-25T09:49:13.897Z,15.96
2018-09-25T09:51:48.133Z,16.01
2018-09-25T09:54:22.013Z,16.10
2018-09-25T09:56:55.892Z,16.14
2018-09-25T09:59:29.793Z,16.19
2018-09-25T10:02:04.148Z,16.35
2018-09-25T10:04:38.076Z,16.55
2018-09-25T10:07:12.092Z,16.70
2018-09-25T10:09:46.011Z,16.90
2018-09-25T10:12:19.819Z,17.04
2018-09-25T10:14:53.873Z,17.19
2018-09-25T10:17:27.774Z,17.39
2018-09-25T10:20:01.628Z,17.44
2018-09-25T10:22:35.548Z,17.50
2018-09-25T10:25:09.349Z,17.66
2018-09-25T10:27:43.308Z,17.86
2018-09-25T10:30:17.364Z,17.90
2018-09-25T10:32:51.480Z,17.88
2018-09-25T10:35:25.314Z,17.90
2018-09-25T10:37:59.442Z,18.03
2018-09-25T10:40:33.356Z,18.24
2018-09-25T10:43:07.273Z,18.49
2018-09-25T10:45:41.166Z,18.79
2018-09-25T10:48:15.289Z,19.03
2018-09-25T10:50:49.376Z,19.19
2018-09-25T10:53:24.056Z,19.33
2018-09-25T10:55:57.952Z,19.38
2018-09-25T10:58:31.765Z,19.56
2018-09-25T11:01:06.187Z,19.54
2018-09-25T11:03:40.306Z,19.75
2018-09-25T11:06:15.133Z,19.50
2018-09-25T11:08:49.239Z,19.39
2018-09-25T11:11:23.477Z,19.34
2018-09-25T11:13:57.717Z,19.29
2018-09-25T11:16:31.642Z,19.45
2018-09-25T11:19:05.649Z,19.78
2018-09-25T11:21:39.568Z,19.92
2018-09-25T11:24:13.451Z,19.93
2018-09-25T11:26:47.318Z,19.77
2018-09-25T11:29:21.423Z,19.44
2018-09-25T11:31:55.594Z,19.20
2018-09-25T11:34:29.404Z,18.94
2018-09-25T11:37:03.447Z,18.82
2018-09-25T11:39:37.876Z,18.69
2018-09-25T11:42:11.839Z,18.56
2018-09-25T11:44:46.049Z,18.44
2018-09-25T11:47:19.991Z,18.45
2018-09-25T11:49:53.900Z,18.46
2018-09-25T11:52:28.045Z,18.57
2018-09-25T11:55:02.319Z,18.38
2018-09-25T11:57:36.206Z,18.18
2018-09-25T12:00:10.089Z,17.95
2018-09-25T12:02:44.190Z,17.89
2018-09-25T12:05:18.201Z,18.06
2018-09-25T12:07:52.402Z,17.96
2018-09-25T12:10:26.654Z,17.92
2018-09-25T12:13:00.951Z,17.88
2018-09-25T12:15:34.850Z,17.85
2018-09-25T12:18:08.863Z,17.80
2018-09-25T12:20:43.108Z,17.67
2018-09-25T12:23:17.142Z,17.55
2018-09-25T12:25:50.971Z,17.47
2018-09-25T12:28:25.677Z,17.19
2018-09-25T12:30:59.541Z,17.13
2018-09-25T12:33:33.960Z,17.13
2018-09-25T12:36:07.887Z,17.10
2018-09-25T12:38:41.944Z,17.14
2018-09-25T12:41:15.877Z,17.20
2018-09-25T12:43:49.842Z,17.19
2018-09-25T12:46:24.203Z,17.23
2018-09-25T12:48:58.101Z,17.20
2018-09-25T12:51:32.034Z,17.16
2018-09-25T12:54:05.894Z,17.08
2018-09-25T12:56:40.098Z,16.98
2018-09-25T12:59:14.501Z,16.91
2018-09-25T13:01:48.771Z,16.89
2018-09-25T13:04:22.644Z,16.87
2018-09-25T13:06:56.856Z,16.86
2018-09-25T13:09:31.681Z,16.86
2018-09-25T13:12:05.755Z,16.92
2018-09-25T13:14:39.894Z,16.98
2018-09-25T13:17:13.825Z,16.97
2018-09-25T13:19:47.724Z,16.91
2018-09-25T13:22:21.885Z,16.87
2018-09-25T13:24:55.639Z,16.85
2018-09-25T13:27:29.588Z,16.83
2018-09-25T13:30:03.485Z,16.81
2018-09-25T13:32:37.278Z,16.84
2018-09-25T13:35:11.510Z,16.88
2018-09-25T13:37:45.909Z,16.92
2018-09-25T13:40:20.504Z,17.01
2018-09-25T13:42:54.651Z,17.11
2018-09-25T13:45:28.558Z,17.18
2018-09-25T13:48:02.684Z,17.22
2018-09-25T13:50:37.078Z,17.12
2018-09-25T13:53:10.942Z,17.09
2018-09-25T13:55:44.882Z,17.20
2018-09-25T13:58:19.282Z,17.28
2018-09-25T14:00:53.194Z,17.34
2018-09-25T14:03:27.122Z,17.27
2018-09-25T14:06:01.399Z,17.18
2018-09-25T14:08:35.525Z,17.11
2018-09-25T14:11:09.524Z,17.11
2018-09-25T14:13:44.327Z,17.10
2018-09-25T14:16:18.269Z,17.28
2018-09-25T14:18:52.483Z,17.61
2018-09-25T14:21:26.331Z,17.89
2018-09-25T14:24:00.244Z,18.06
2018-09-25T14:26:34.139Z,18.19
2018-09-25T14:29:08.222Z,18.26
2018-09-25T14:31:42.182Z,18.27
2018-09-25T14:34:16.009Z,18.36
2018-09-25T14:36:50.074Z,18.48
2018-09-25T14:39:24.251Z,18.48
2018-09-25T14:41:58.520Z,18.51
2018-09-25T14:44:32.457Z,18.56
2018-09-25T14:47:06.548Z,18.60
2018-09-25T14:49:40.650Z,18.63
2018-09-25T14:52:15.248Z,18.66
2018-09-25T14:54:49.127Z,18.69
2018-09-25T14:57:22.978Z,18.68
2018-09-25T14:59:57.345Z,18.67
2018-09-25T15:02:31.275Z,18.70
2018-09-25T15:05:05.537Z,18.75
2018-09-25T15:07:39.427Z,18.75
2018-09-25T15:10:13.322Z,18.76
2018-09-25T15:12:47.209Z,18.81
2018-09-25T15:15:21.486Z,18.86
2018-09-25T15:17:55.759Z,18.82
2018-09-25T15:20:30.100Z,18.68
2018-09-25T15:23:05.143Z,18.60
2018-09-25T15:25:39.208Z,18.58
2018-09-25T15:28:13.310Z,18.54
2018-09-25T15:30:47.236Z,18.56
2018-09-25T15:33:21.188Z,18.57
2018-09-25T15:35:55.243Z,18.51
2018-09-25T15:38:29.168Z,18.39
2018-09-25T15:41:03.116Z,18.41
2018-09-25T15:43:36.909Z,18.46
2018-09-25T15:46:10.968Z,18.48
2018-09-25T15:48:44.827Z,18.51
2018-09-25T15:51:18.712Z,18.51
2018-09-25T15:53:52.884Z,18.45
2018-09-25T15:56:26.799Z,18.34
2018-09-25T15:59:00.907Z,18.21
2018-09-25T16:01:34.907Z,18.10
2018-09-25T16:04:08.856Z,18.02
2018-09-25T16:06:42.600Z,17.92
2018-09-25T16:09:16.486Z,17.80
2018-09-25T16:11:50.443Z,17.66
2018-09-25T16:14:24.352Z,17.54
2018-09-25T16:16:58.374Z,17.47
2018-09-25T16:19:32.239Z,17.40
2018-09-25T16:22:07.660Z,17.41
2018-09-25T16:24:41.637Z,17.37
2018-09-25T16:27:15.890Z,17.29
2018-09-25T16:29:49.847Z,17.24
2018-09-25T16:32:24.070Z,17.18
2018-09-25T16:34:58.400Z,17.11
2018-09-25T16:37:32.604Z,17.05
2018-09-25T16:40:07.378Z,17.01
2018-09-25T16:42:41.546Z,16.94
2018-09-25T16:45:15.327Z,16.89
2018-09-25T16:47:49.259Z,16.84
2018-09-25T16:50:23.185Z,16.79
2018-09-25T16:52:57.150Z,16.73
2018-09-25T16:55:31.934Z,16.70
2018-09-25T16:58:06.164Z,16.64
2018-09-25T17:00:40.773Z,16.58
2018-09-25T17:03:14.636Z,16.52
2018-09-25T17:05:48.615Z,16.45
2018-09-25T17:08:23.207Z,16.41
2018-09-25T17:10:57.068Z,16.37
2018-09-25T17:13:31.109Z,16.31
2018-09-25T17:16:05.239Z,16.25
2018-09-25T17:18:39.102Z,16.17
2018-09-25T17:21:13.342Z,16.10
2018-09-25T17:23:47.210Z,16.02
2018-09-25T17:26:21.392Z,15.95
2018-09-25T17:28:55.354Z,15.87
2018-09-25T17:31:29.266Z,15.78
2018-09-25T17:34:03.152Z,15.71
2018-09-25T17:36:37.048Z,15.61
2018-09-25T17:39:13.887Z,15.51
2018-09-25T17:41:48.215Z,15.43
2018-09-25T17:44:22.339Z,15.33
2018-09-25T17:46:56.348Z,15.23
2018-09-25T17:49:30.738Z,15.15
2018-09-25T17:52:05.000Z,15.06
2018-09-25T17:54:39.211Z,14.96
2018-09-25T17:57:13.161Z,14.83
2018-09-25T17:59:47.126Z,14.72
2018-09-25T18:02:20.995Z,14.61
2018-09-25T18:04:55.142Z,14.51
2018-09-25T18:07:29.113Z,14.42
2018-09-25T18:10:03.121Z,14.33
2018-09-25T18:12:37.044Z,14.27
2018-09-25T18:15:11.223Z,14.18
2018-09-25T18:17:45.629Z,14.10
2018-09-25T18:20:21.387Z,14.01
2018-09-25T18:22:55.128Z,13.90
2018-09-25T18:25:29.369Z,13.80
2018-09-25T18:28:03.393Z,13.71
2018-09-25T18:30:37.300Z,13.62
2018-09-25T18:33:11.607Z,13.53
2018-09-25T18:35:45.424Z,13.45
2018-09-25T18:38:19.307Z,13.37
2018-09-25T18:41:00.308Z,13.31
2018-09-25T18:43:34.258Z,13.23
2018-09-25T18:46:09.169Z,13.15
2018-09-25T18:48:43.332Z,13.04
2018-09-25T18:51:18.183Z,12.94
2018-09-25T18:53:52.087Z,12.87
2018-09-25T18:56:25.932Z,12.79
2018-09-25T18:59:00.191Z,12.71
2018-09-25T19:01:34.119Z,12.63
2018-09-25T19:04:08.484Z,12.56
2018-09-25T19:06:42.328Z,12.46
2018-09-25T19:09:16.999Z,12.38
2018-09-25T19:11:51.610Z,12.32
2018-09-25T19:14:25.731Z,12.25
2018-09-25T19:17:00.713Z,12.20
2018-09-25T19:19:34.497Z,12.16
2018-09-25T19:22:08.547Z,12.09
2018-09-25T19:24:42.739Z,11.99
2018-09-25T19:27:17.019Z,11.92
2018-09-25T19:29:51.197Z,11.85
2018-09-25T19:32:25.162Z,11.80
2018-09-25T19:34:59.296Z,11.74
2018-09-25T19:37:33.602Z,11.69
2018-09-25T19:40:07.997Z,11.65
2018-09-25T19:42:41.786Z,11.60
2018-09-25T19:45:15.721Z,11.56
2018-09-25T19:47:50.068Z,11.50
2018-09-25T19:50:24.304Z,11.47
2018-09-25T19:52:58.424Z,11.41
2018-09-25T19:55:32.195Z,11.36
2018-09-25T19:58:05.990Z,11.31
2018-09-25T20:00:40.492Z,11.29
2018-09-25T20:03:14.548Z,11.26
2018-09-25T20:05:48.761Z,11.21
2018-09-25T20:08:22.923Z,11.15
2018-09-25T20:10:57.514Z,11.11
2018-09-25T20:13:31.358Z,11.04
2018-09-25T20:16:05.273Z,10.99
2018-09-25T20:18:39.212Z,10.95
2018-09-25T20:21:12.941Z,10.91
2018-09-25T20:23:46.818Z,10.88
2018-09-25T20:26:20.734Z,10.86
2018-09-25T20:28:54.969Z,10.86
2018-09-25T20:31:28.820Z,10.83
2018-09-25T20:34:03.345Z,10.80
2018-09-25T20:36:37.335Z,10.76
2018-09-25T20:39:11.927Z,10.74
2018-09-25T20:41:46.174Z,10.73
2018-09-25T20:44:20.731Z,10.70
2018-09-25T20:46:54.695Z,10.65
2018-09-25T20:49:28.602Z,10.63
2018-09-25T20:52:02.529Z,10.60
2018-09-25T20:54:36.958Z,10.56
2018-09-25T20:57:11.244Z,10.54
2018-09-25T20:59:45.516Z,10.50
2018-09-25T21:02:19.731Z,10.47
2018-09-25T21:04:53.707Z,10.45
2018-09-25T21:07:28.874Z,10.43
2018-09-25T21:10:04.396Z,10.40
2018-09-25T21:12:40.413Z,10.39
2018-09-25T21:15:16.168Z,10.35
2018-09-25T21:17:53.383Z,10.33
2018-09-25T21:20:29.318Z,10.30
2018-09-25T21:23:05.077Z,10.27
2018-09-25T21:32:51.226Z,10.13
2018-09-25T21:35:25.425Z,10.09
2018-09-25T21:37:59.541Z,10.06
2018-09-25T21:40:33.426Z,10.04
2018-09-25T21:43:07.497Z,9.98
2018-09-25T21:45:41.400Z,9.96
2018-09-25T21:48:15.613Z,9.94
2018-09-25T21:50:51.601Z,9.91
2018-09-25T21:53:26.324Z,9.89
2018-09-25T21:56:00.223Z,9.86
2018-09-25T21:58:34.247Z,9.84
2018-09-25T22:01:08.737Z,9.80
2018-09-25T22:03:43.354Z,9.79
2018-09-25T22:06:17.390Z,9.75
2018-09-25T22:08:51.447Z,9.71
2018-09-25T22:11:25.362Z,9.69
2018-09-25T22:13:59.239Z,9.66
2018-09-25T22:16:33.160Z,9.60
2018-09-25T22:19:07.017Z,9.56
2018-09-25T22:21:40.986Z,9.53
2018-09-25T22:24:14.969Z,9.51
2018-09-25T22:26:48.958Z,9.50
2018-09-25T22:29:22.930Z,9.45
2018-09-25T22:31:57.170Z,9.38
2018-09-25T22:34:31.174Z,9.35
2018-09-25T22:37:05.100Z,9.34
2018-09-25T22:39:38.922Z,9.34
2018-09-25T22:42:12.862Z,9.32
2018-09-25T22:44:46.801Z,9.31
2018-09-25T22:47:21.059Z,9.29
2018-09-25T22:49:54.996Z,9.26
2018-09-25T22:52:28.897Z,9.24
2018-09-25T22:55:02.850Z,9.21
2018-09-25T22:57:36.733Z,9.19
2018-09-25T23:00:10.731Z,9.17
2018-09-25T23:02:44.938Z,9.14
2018-09-25T23:05:19.288Z,9.07
2018-09-25T23:07:53.500Z,9.00
2018-09-25T23:10:27.626Z,8.92
2018-09-25T23:13:01.702Z,8.86
2018-09-25T23:15:35.612Z,8.82
2018-09-25T23:18:09.520Z,8.83
2018-09-25T23:20:43.881Z,8.83
2018-09-25T23:23:18.143Z,8.85
2018-09-25T23:25:52.359Z,8.84
2018-09-25T23:28:26.278Z,8.87
2018-09-25T23:31:00.509Z,8.85
2018-09-25T23:33:34.481Z,8.85
2018-09-25T23:36:08.752Z,8.85
2018-09-25T23:38:42.566Z,8.85
2018-09-25T23:41:16.451Z,8.84
2018-09-25T23:43:47.346Z,8.84
2018-09-25T23:46:23.487Z,8.81
2018-09-25T23:49:04.546Z,8.79
2018-09-25T23:51:39.050Z,8.77
2018-09-25T23:54:20.524Z,8.74
2018-09-25T23:56:54.256Z,8.72
2018-09-25T23:59:31.311Z,8.71
